createdAt,value
2022-12-19T00:02:35.839Z,52.23
2022-12-19T00:05:57.417Z,62.90
2022-12-19T00:09:20.436Z,53.73
2022-12-19T00:12:42.186Z,52.43
2022-12-19T00:16:05.279Z,59.27
2022-12-19T00:19:27.089Z,61.30
2022-12-19T00:22:48.657Z,53.63
2022-12-19T00:26:18.629Z,56.30
2022-12-19T00:29:41.625Z,61.07
2022-12-19T00:33:03.288Z,57.57
2022-12-19T00:36:26.639Z,53.40
2022-12-19T00:39:48.096Z,61.33
2022-12-19T00:43:11.237Z,58.70
2022-12-19T00:46:34.498Z,50.50
2022-12-19T00:49:56.256Z,60.83
2022-12-19T00:53:18.001Z,56.97
2022-12-19T00:56:39.468Z,61.03
2022-12-19T01:00:06.020Z,59.47
2022-12-19T01:03:27.690Z,58.97
2022-12-19T01:06:49.517Z,59.80
2022-12-19T01:10:11.881Z,57.40
2022-12-19T01:13:35.635Z,62.03
2022-12-19T01:17:05.020Z,62.63
2022-12-19T01:20:28.987Z,53.30
2022-12-19T01:23:51.564Z,52.90
2022-12-19T01:27:13.328Z,56.90
2022-12-19T01:30:35.727Z,55.43
2022-12-19T01:34:02.563Z,55.87
2022-12-19T01:37:24.061Z,66.67
2022-12-19T01:40:51.200Z,55.30
2022-12-19T01:44:14.601Z,53.93
2022-12-19T01:47:45.161Z,55.50
2022-12-19T01:51:17.541Z,54.00
2022-12-19T01:54:42.081Z,55.80
2022-12-19T01:58:04.547Z,55.80
2022-12-19T02:01:26.777Z,59.27
2022-12-19T02:04:49.347Z,57.70
2022-12-19T02:08:12.748Z,56.90
2022-12-19T02:11:34.424Z,53.37
2022-12-19T02:15:02.650Z,57.40
2022-12-19T02:18:36.565Z,55.47
2022-12-19T02:22:05.793Z,52.17
2022-12-19T02:25:49.572Z,52.13
2022-12-19T02:29:24.974Z,54.00
2022-12-19T02:32:58.459Z,54.83
2022-12-19T02:36:23.995Z,47.40
2022-12-19T02:39:50.873Z,49.50
2022-12-19T02:43:14.773Z,49.13
2022-12-19T02:46:36.735Z,54.57
2022-12-19T02:49:59.883Z,49.53
2022-12-19T02:53:24.030Z,50.83
2022-12-19T02:56:56.263Z,50.00
2022-12-19T03:00:21.821Z,56.57
2022-12-19T03:03:51.690Z,49.63
2022-12-19T03:07:27.155Z,59.87
2022-12-19T03:10:55.662Z,58.07
2022-12-19T03:14:22.142Z,52.63
2022-12-19T03:17:49.766Z,47.53
2022-12-19T03:21:18.993Z,49.67
2022-12-19T03:24:41.997Z,49.77
2022-12-19T03:28:08.156Z,49.13
2022-12-19T03:31:32.601Z,51.17
2022-12-19T03:35:00.699Z,48.43
2022-12-19T03:38:23.778Z,49.50
2022-12-19T03:42:04.442Z,53.03
2022-12-19T03:45:32.402Z,47.70
2022-12-19T03:48:55.386Z,44.27
2022-12-19T03:52:26.852Z,46.83
2022-12-19T03:55:51.672Z,49.37
2022-12-19T03:59:20.779Z,48.60
2022-12-19T04:02:46.035Z,47.33
2022-12-19T04:06:08.103Z,45.83
2022-12-19T04:09:31.570Z,44.60
2022-12-19T04:12:59.755Z,47.13
2022-12-19T04:16:31.143Z,47.50
2022-12-19T04:19:58.820Z,44.17
2022-12-19T04:23:25.836Z,46.70
2022-12-19T04:26:50.473Z,36.90
2022-12-19T04:30:15.817Z,42.00
2022-12-19T04:33:38.503Z,47.53
2022-12-19T04:37:07.671Z,50.23
2022-12-19T04:40:29.278Z,42.47
2022-12-19T04:43:51.014Z,48.20
2022-12-19T04:47:12.492Z,45.43
2022-12-19T04:50:36.787Z,45.73
2022-12-19T04:53:58.535Z,48.87
2022-12-19T04:57:20.050Z,44.63
2022-12-19T05:00:41.800Z,46.63
2022-12-19T05:04:04.843Z,46.40
2022-12-19T05:07:28.200Z,46.43
2022-12-19T05:10:49.740Z,51.67
2022-12-19T05:14:11.537Z,51.27
2022-12-19T05:17:33.468Z,42.57
2022-12-19T05:20:55.440Z,44.30
2022-12-19T05:24:18.514Z,43.97
2022-12-19T05:27:40.104Z,46.17
2022-12-19T05:31:07.625Z,47.83
2022-12-19T05:34:29.481Z,40.07
2022-12-19T05:37:51.031Z,42.97
2022-12-19T05:41:18.596Z,43.30
2022-12-19T05:44:39.809Z,49.43
2022-12-19T05:48:01.781Z,48.33
2022-12-19T05:51:23.652Z,43.03
2022-12-19T05:54:45.731Z,45.40
2022-12-19T05:58:08.696Z,44.03
2022-12-19T06:01:30.655Z,40.40
2022-12-19T06:04:52.302Z,40.20
2022-12-19T06:08:14.247Z,40.87
2022-12-19T06:11:36.052Z,42.67
2022-12-19T06:14:59.087Z,41.37
2022-12-19T06:18:20.660Z,43.87
2022-12-19T06:21:47.976Z,39.83
2022-12-19T06:25:10.902Z,45.50
2022-12-19T06:28:33.305Z,39.43
2022-12-19T06:31:56.114Z,41.37
2022-12-19T06:35:17.664Z,43.47
2022-12-19T06:38:39.103Z,50.60
2022-12-19T06:42:17.686Z,41.53
2022-12-19T06:45:39.145Z,38.27
2022-12-19T06:49:02.309Z,45.57
2022-12-19T06:52:23.949Z,47.40
2022-12-19T06:55:49.436Z,43.87
2022-12-19T06:59:13.929Z,38.93
2022-12-19T07:02:35.907Z,37.33
2022-12-19T07:05:58.726Z,45.67
2022-12-19T07:09:21.589Z,45.13
2022-12-19T07:12:42.964Z,47.30
2022-12-19T07:16:06.614Z,46.37
2022-12-19T07:19:29.369Z,43.43
2022-12-19T07:22:52.456Z,43.17
2022-12-19T07:26:14.049Z,38.10
2022-12-19T07:29:35.944Z,34.87
2022-12-19T07:32:57.776Z,39.03
2022-12-19T07:36:19.681Z,37.87
2022-12-19T07:39:42.903Z,36.23
2022-12-19T07:43:05.906Z,31.37
2022-12-19T07:46:29.845Z,32.80
2022-12-19T07:49:51.340Z,34.10
2022-12-19T07:53:12.819Z,30.83
2022-12-19T07:56:35.947Z,33.87
2022-12-19T07:59:58.510Z,33.03
2022-12-19T08:03:20.310Z,34.37
2022-12-19T08:06:42.012Z,33.13
2022-12-19T08:10:03.865Z,31.17
2022-12-19T08:13:29.043Z,31.23
2022-12-19T08:20:34.399Z,31.60
2022-12-19T08:23:56.440Z,32.87
2022-12-19T08:27:18.806Z,33.07
2022-12-19T08:30:42.700Z,37.30
2022-12-19T08:34:04.168Z,31.13
2022-12-19T08:37:25.845Z,31.77
2022-12-19T08:40:53.622Z,33.07
2022-12-19T08:44:15.463Z,31.20
2022-12-19T08:47:38.532Z,33.63
2022-12-19T08:51:01.712Z,35.17
2022-12-19T08:54:23.571Z,37.83
2022-12-19T08:57:45.254Z,29.60
2022-12-19T09:01:09.989Z,39.33
2022-12-19T09:05:57.446Z,35.60
2022-12-19T09:08:14.848Z,34.67
2022-12-19T09:11:40.904Z,35.40
2022-12-19T09:15:10.523Z,33.00
2022-12-19T09:18:32.961Z,32.77
2022-12-19T09:21:55.650Z,27.73
2022-12-19T09:25:17.631Z,46.90
2022-12-19T09:28:40.937Z,41.40
2022-12-19T09:32:02.593Z,26.87
2022-12-19T09:35:28.535Z,32.20
2022-12-19T09:38:54.712Z,27.97
2022-12-19T09:42:29.365Z,28.67
2022-12-19T09:46:01.968Z,30.27
2022-12-19T09:49:25.817Z,29.37
2022-12-19T09:52:52.112Z,28.30
2022-12-19T09:56:16.769Z,29.60
2022-12-19T09:59:49.584Z,30.57
2022-12-19T10:03:22.891Z,28.67
2022-12-19T10:07:22.190Z,30.00
2022-12-19T10:12:46.407Z,28.63
2022-12-19T10:14:43.821Z,29.47
2022-12-19T10:18:31.078Z,31.17
2022-12-19T10:22:18.331Z,31.47
2022-12-19T10:25:52.701Z,31.90
2022-12-19T10:29:31.197Z,28.53
2022-12-19T10:33:01.728Z,27.43
2022-12-19T10:36:48.655Z,31.67
2022-12-19T10:40:27.664Z,30.40
2022-12-19T10:44:00.139Z,30.80
2022-12-19T10:47:23.279Z,31.13
2022-12-19T10:50:45.277Z,30.00
2022-12-19T10:54:06.708Z,34.53
2022-12-19T10:57:30.354Z,30.60
2022-12-19T11:01:05.124Z,32.60
2022-12-19T11:04:35.330Z,30.43
2022-12-19T11:08:03.713Z,29.63
2022-12-19T11:14:15.197Z,29.97
2022-12-19T11:20:18.975Z,29.73
2022-12-19T11:29:40.134Z,34.33
2022-12-19T11:29:40.836Z,33.33
2022-12-19T11:30:46.938Z,26.87
2022-12-19T11:34:07.567Z,34.93
2022-12-19T11:37:38.999Z,28.87
2022-12-19T11:41:10.867Z,32.80
2022-12-19T11:44:40.041Z,29.50
2022-12-19T11:48:10.467Z,31.03
2022-12-19T11:51:40.636Z,33.13
2022-12-19T11:55:07.460Z,28.93
2022-12-19T11:58:30.891Z,29.47
2022-12-19T12:02:31.420Z,29.10
2022-12-19T12:05:55.363Z,28.20
2022-12-19T12:13:52.072Z,33.10
2022-12-19T12:24:22.381Z,30.17
2022-12-19T12:31:07.991Z,35.87
2022-12-19T12:31:10.656Z,34.07
2022-12-19T12:31:22.107Z,35.90
2022-12-19T12:31:53.737Z,31.40
2022-12-19T12:35:42.373Z,31.50
2022-12-19T12:40:55.919Z,26.27
2022-12-19T12:44:18.459Z,27.70
2022-12-19T12:47:55.669Z,30.20
2022-12-19T12:51:18.550Z,28.77
2022-12-19T12:54:43.943Z,32.10
2022-12-19T12:58:09.178Z,29.70
2022-12-19T13:01:37.696Z,29.00
2022-12-19T13:05:02.146Z,29.90
2022-12-19T13:08:35.381Z,30.77
2022-12-19T13:12:20.456Z,28.47
2022-12-19T13:15:44.023Z,27.53
2022-12-19T13:19:20.974Z,27.80
2022-12-19T13:23:04.347Z,30.67
2022-12-19T13:26:51.124Z,29.57
2022-12-19T13:30:18.340Z,30.13
2022-12-19T13:33:47.108Z,29.03
2022-12-19T13:40:01.457Z,33.50
2022-12-19T13:41:47.665Z,31.70
2022-12-19T13:45:14.654Z,29.10
2022-12-19T13:48:42.649Z,28.83
2022-12-19T13:52:05.869Z,29.23
2022-12-19T13:55:29.989Z,31.73
2022-12-19T13:58:56.547Z,35.80
2022-12-19T14:02:27.130Z,30.37
2022-12-19T14:06:16.450Z,29.70
2022-12-19T14:11:26.902Z,34.13
2022-12-19T14:13:51.022Z,31.23
2022-12-19T14:17:22.977Z,38.83
2022-12-19T14:22:05.677Z,31.73
2022-12-19T14:24:26.344Z,33.80
2022-12-19T14:28:26.610Z,32.13
2022-12-19T14:31:36.967Z,30.43
2022-12-19T14:36:06.441Z,35.07
2022-12-19T14:39:23.728Z,34.20
2022-12-19T14:43:58.855Z,32.93
2022-12-19T14:54:03.376Z,32.13
2022-12-19T14:54:07.367Z,35.70
2022-12-19T14:58:51.119Z,33.87
2022-12-19T15:01:54.605Z,34.93
2022-12-19T15:05:18.374Z,34.03
2022-12-19T15:09:02.629Z,33.17
2022-12-19T15:13:47.196Z,31.73
2022-12-19T15:16:31.452Z,33.03
2022-12-19T15:19:53.609Z,27.97
2022-12-19T15:23:19.931Z,28.37
2022-12-19T15:26:48.929Z,27.20
2022-12-19T15:30:16.108Z,27.33
2022-12-19T15:33:48.072Z,28.87
2022-12-19T15:37:19.188Z,30.27
2022-12-19T15:40:42.884Z,26.60
2022-12-19T15:44:10.737Z,27.27
2022-12-19T15:47:34.553Z,28.70
2022-12-19T15:50:56.024Z,25.90
2022-12-19T15:58:02.425Z,26.37
2022-12-19T16:01:26.844Z,31.97
2022-12-19T16:04:49.944Z,30.97
2022-12-19T16:08:13.070Z,29.20
2022-12-19T16:11:34.711Z,27.37
2022-12-19T16:14:59.273Z,25.80
2022-12-19T16:18:22.701Z,26.37
2022-12-19T16:21:44.905Z,26.53
2022-12-19T16:25:07.673Z,28.37
2022-12-19T16:28:31.861Z,25.57
2022-12-19T16:31:54.945Z,25.67
2022-12-19T16:35:40.149Z,24.03
2022-12-19T16:39:02.050Z,26.23
2022-12-19T16:42:23.471Z,21.07
2022-12-19T16:45:45.991Z,24.03
2022-12-19T16:49:14.314Z,24.67
2022-12-19T16:52:42.350Z,23.17
2022-12-19T16:56:04.646Z,25.50
2022-12-19T16:59:31.841Z,24.53
2022-12-19T17:02:57.441Z,23.63
2022-12-19T17:06:20.937Z,24.70
2022-12-19T17:09:44.059Z,25.10
2022-12-19T17:13:06.015Z,25.20
2022-12-19T17:16:27.765Z,24.17
2022-12-19T17:19:49.441Z,22.83
2022-12-19T17:23:15.922Z,23.73
2022-12-19T17:26:38.931Z,26.40
2022-12-19T17:30:01.313Z,23.97
2022-12-19T17:33:26.809Z,24.50
2022-12-19T17:36:48.827Z,23.10
2022-12-19T17:40:17.699Z,27.37
2022-12-19T17:43:40.574Z,26.30
2022-12-19T17:47:02.407Z,26.87
2022-12-19T17:50:27.311Z,25.10
2022-12-19T17:53:49.466Z,26.10
2022-12-19T17:57:14.265Z,24.70
2022-12-19T18:00:37.140Z,25.80
2022-12-19T18:03:58.995Z,26.30
2022-12-19T18:07:20.841Z,23.63
2022-12-19T18:10:42.325Z,25.20
2022-12-19T18:14:04.248Z,27.40
2022-12-19T18:17:27.420Z,25.70
2022-12-19T18:20:50.096Z,27.07
2022-12-19T18:24:12.979Z,24.80
2022-12-19T18:27:34.547Z,25.83
2022-12-19T18:31:01.193Z,25.43
2022-12-19T18:34:26.099Z,25.23
2022-12-19T18:37:49.026Z,23.47
2022-12-19T18:41:11.923Z,28.60
2022-12-19T18:44:33.688Z,24.57
2022-12-19T18:47:58.524Z,23.97
2022-12-19T18:51:23.247Z,26.70
2022-12-19T18:54:44.978Z,25.23
2022-12-19T18:58:07.091Z,27.63
2022-12-19T19:01:28.620Z,24.60
2022-12-19T19:04:50.799Z,25.17
2022-12-19T19:08:18.336Z,25.90
2022-12-19T19:11:45.297Z,24.27
2022-12-19T19:15:07.976Z,28.47
2022-12-19T19:18:33.043Z,22.77
2022-12-19T19:21:55.369Z,24.83
2022-12-19T19:25:18.673Z,27.17
2022-12-19T19:28:40.162Z,22.70
2022-12-19T19:32:02.242Z,22.77
2022-12-19T19:35:24.388Z,24.70
2022-12-19T19:38:49.864Z,26.07
2022-12-19T19:42:12.582Z,25.63
2022-12-19T19:45:41.194Z,23.37
2022-12-19T19:49:04.796Z,22.27
2022-12-19T19:52:26.186Z,27.57
2022-12-19T19:55:55.929Z,25.27
2022-12-19T19:59:18.872Z,26.83
2022-12-19T20:02:40.796Z,25.97
2022-12-19T20:06:02.837Z,26.70
2022-12-19T20:09:24.416Z,27.90
2022-12-19T20:12:46.725Z,26.83
2022-12-19T20:16:12.168Z,24.97
2022-12-19T20:19:33.690Z,27.87
2022-12-19T20:22:55.517Z,29.73
2022-12-19T20:26:18.179Z,27.67
2022-12-19T20:29:39.899Z,26.37
2022-12-19T20:33:03.031Z,24.23
2022-12-19T20:36:25.484Z,25.27
2022-12-19T20:39:46.972Z,23.10
2022-12-19T20:43:08.813Z,26.63
2022-12-19T20:46:30.503Z,24.77
2022-12-19T20:49:53.589Z,25.20
2022-12-19T20:53:15.035Z,24.47
2022-12-19T20:56:37.167Z,27.13
2022-12-19T20:59:58.527Z,24.07
2022-12-19T21:03:29.461Z,25.00
2022-12-19T21:06:53.080Z,26.17
2022-12-19T21:10:14.845Z,24.70
2022-12-19T21:13:37.534Z,26.93
2022-12-19T21:16:59.192Z,30.10
2022-12-19T21:20:20.964Z,25.03
2022-12-19T21:23:44.839Z,23.40
2022-12-19T21:27:06.238Z,25.30
2022-12-19T21:30:27.811Z,26.07
2022-12-19T21:33:51.067Z,23.23
2022-12-19T21:37:12.364Z,24.73
2022-12-19T21:40:36.994Z,25.00
2022-12-19T21:44:00.475Z,23.73
2022-12-19T21:47:22.491Z,22.87
2022-12-19T21:50:44.419Z,20.83
2022-12-19T21:54:07.060Z,21.57
2022-12-19T21:57:29.821Z,21.60
2022-12-19T22:00:51.160Z,26.77
2022-12-19T22:04:15.337Z,25.17
2022-12-19T22:07:37.061Z,24.20
2022-12-19T22:10:58.706Z,26.33
2022-12-19T22:14:21.871Z,23.57
2022-12-19T22:17:43.868Z,20.53
2022-12-19T22:21:06.690Z,23.17
2022-12-19T22:24:28.162Z,23.67
2022-12-19T22:27:49.764Z,22.40
2022-12-19T22:31:21.270Z,22.17
2022-12-19T22:34:42.804Z,23.23
2022-12-19T22:38:04.662Z,22.40
2022-12-19T22:41:27.757Z,25.07
2022-12-19T22:44:49.411Z,23.17
2022-12-19T22:48:12.531Z,23.97
2022-12-19T22:51:35.571Z,23.30
2022-12-19T22:54:57.120Z,20.60
2022-12-19T22:58:18.800Z,25.37
2022-12-19T23:01:42.864Z,22.03
2022-12-19T23:05:07.105Z,23.93
2022-12-19T23:08:28.586Z,24.30
2022-12-19T23:11:50.705Z,27.17
2022-12-19T23:15:12.520Z,22.73
2022-12-19T23:18:34.279Z,27.10
2022-12-19T23:21:57.069Z,24.83
2022-12-19T23:25:18.846Z,23.73
2022-12-19T23:28:40.672Z,24.83
2022-12-19T23:32:02.563Z,23.37
2022-12-19T23:35:24.287Z,25.17
2022-12-19T23:38:47.500Z,23.33
2022-12-19T23:42:09.398Z,23.90
2022-12-19T23:45:31.085Z,25.87
2022-12-19T23:48:54.399Z,25.40
2022-12-19T23:52:16.244Z,24.03
2022-12-19T23:55:39.323Z,26.87
2022-12-19T23:59:01.535Z,24.87
